createdAt,value
2022-08-27T00:04:33.284Z,17.46
2022-08-27T00:09:36.122Z,17.45
2022-08-27T00:14:52.233Z,17.42
2022-08-27T00:20:06.794Z,17.36
2022-08-27T00:25:09.515Z,17.31
2022-08-27T00:30:18.519Z,17.30
2022-08-27T00:35:20.736Z,17.26
2022-08-27T00:40:23.521Z,17.23
2022-08-27T00:45:26.884Z,17.15
2022-08-27T00:50:32.956Z,17.05
2022-08-27T00:55:40.435Z,16.95
2022-08-27T01:00:46.147Z,16.91
2022-08-27T01:05:50.331Z,16.90
2022-08-27T01:10:56.101Z,16.86
2022-08-27T01:15:59.533Z,16.81
2022-08-27T01:21:14.428Z,16.76
2022-08-27T01:26:17.535Z,16.74
2022-08-27T01:31:19.586Z,16.77
2022-08-27T01:36:22.077Z,16.83
2022-08-27T01:41:25.203Z,16.91
2022-08-27T01:46:29.107Z,16.89
2022-08-27T01:51:31.188Z,16.78
2022-08-27T01:56:33.475Z,16.69
2022-08-27T02:01:35.842Z,16.52
2022-08-27T02:06:58.229Z,16.39
2022-08-27T02:12:08.262Z,16.25
2022-08-27T02:17:12.508Z,16.12
2022-08-27T02:22:14.401Z,16.05
2022-08-27T02:27:16.587Z,16.04
2022-08-27T02:32:31.721Z,16.12
2022-08-27T02:37:34.286Z,16.25
2022-08-27T02:42:36.351Z,16.32
2022-08-27T02:47:38.331Z,16.34
2022-08-27T02:52:50.895Z,16.26
2022-08-27T02:57:53.555Z,16.08
2022-08-27T03:03:17.344Z,15.93
2022-08-27T03:08:29.092Z,15.82
2022-08-27T03:13:39.123Z,15.71
2022-08-27T03:18:41.304Z,15.61
2022-08-27T03:24:01.204Z,15.51
2022-08-27T03:29:16.902Z,15.48
2022-08-27T03:34:19.744Z,15.50
2022-08-27T03:39:21.993Z,15.47
2022-08-27T03:44:27.657Z,15.49
2022-08-27T03:49:30.047Z,15.55
2022-08-27T03:54:38.067Z,15.62
2022-08-27T03:59:40.049Z,15.67
2022-08-27T04:04:42.134Z,15.67
2022-08-27T04:09:44.524Z,15.70
2022-08-27T04:14:46.705Z,15.64
2022-08-27T04:19:51.071Z,15.63
2022-08-27T04:24:53.293Z,15.77
2022-08-27T04:29:56.517Z,15.89
2022-08-27T04:35:00.244Z,16.07
2022-08-27T04:40:02.527Z,16.29
2022-08-27T04:45:05.962Z,16.52
2022-08-27T04:50:09.369Z,16.80
2022-08-27T04:55:11.456Z,17.11
2022-08-27T05:00:14.571Z,17.58
2022-08-27T05:05:16.695Z,18.01
2022-08-27T05:10:19.139Z,18.11
2022-08-27T05:15:22.110Z,18.28
2022-08-27T05:20:24.425Z,18.62
2022-08-27T05:25:27.635Z,18.63
2022-08-27T05:30:29.618Z,18.59
2022-08-27T05:35:33.025Z,18.72
2022-08-27T05:40:36.175Z,18.87
2022-08-27T05:45:47.322Z,19.01
2022-08-27T05:50:57.333Z,19.41
2022-08-27T05:56:13.457Z,19.84
2022-08-27T06:01:18.533Z,20.28
2022-08-27T06:06:23.006Z,20.59
2022-08-27T06:11:25.110Z,20.74
2022-08-27T06:16:28.212Z,20.86
2022-08-27T06:21:30.681Z,21.15
2022-08-27T06:26:33.098Z,21.48
2022-08-27T06:31:35.970Z,21.84
2022-08-27T06:36:40.502Z,22.15
2022-08-27T06:41:43.509Z,22.44
2022-08-27T06:46:48.347Z,22.73
2022-08-27T06:51:50.854Z,23.09
2022-08-27T06:56:52.939Z,23.37
2022-08-27T07:01:54.871Z,23.53
2022-08-27T07:06:57.129Z,23.79
2022-08-27T07:12:17.358Z,24.12
2022-08-27T07:17:19.390Z,24.47
2022-08-27T07:22:21.440Z,24.91
2022-08-27T07:27:23.667Z,25.33
2022-08-27T07:32:31.824Z,25.61
2022-08-27T07:37:35.234Z,25.85
2022-08-27T07:42:55.920Z,26.07
2022-08-27T07:47:58.098Z,26.27
2022-08-27T07:53:00.180Z,26.65
2022-08-27T07:58:02.267Z,27.18
2022-08-27T08:03:05.678Z,27.60
2022-08-27T08:08:08.433Z,27.85
2022-08-27T08:13:10.376Z,27.51
2022-08-27T08:18:12.972Z,27.13
2022-08-27T08:23:15.647Z,27.03
2022-08-27T08:28:20.137Z,27.68
2022-08-27T08:33:22.878Z,28.01
2022-08-27T08:38:26.278Z,28.49
2022-08-27T08:43:40.243Z,28.90
2022-08-27T08:48:49.422Z,28.92
2022-08-27T08:53:55.482Z,28.95
2022-08-27T08:59:09.027Z,29.20
2022-08-27T09:04:18.179Z,29.31
2022-08-27T09:09:31.460Z,29.40
2022-08-27T09:14:45.182Z,29.77
2022-08-27T09:19:48.492Z,29.91
2022-08-27T09:25:00.503Z,29.73
2022-08-27T09:30:09.754Z,29.72
2022-08-27T09:35:27.322Z,30.12
2022-08-27T09:40:52.740Z,30.42
2022-08-27T09:46:01.122Z,30.56
2022-08-27T09:51:08.902Z,30.34
2022-08-27T09:56:24.847Z,30.32
2022-08-27T10:01:51.263Z,30.49
2022-08-27T10:07:28.845Z,30.34
2022-08-27T10:12:55.343Z,30.18
2022-08-27T10:18:02.153Z,29.72
2022-08-27T10:23:15.138Z,29.77
2022-08-27T10:28:44.861Z,29.82
2022-08-27T10:34:13.873Z,29.88
2022-08-27T10:39:45.140Z,30.04
2022-08-27T10:45:30.643Z,29.94
2022-08-27T10:50:49.519Z,29.95
2022-08-27T10:55:59.175Z,30.07
2022-08-27T11:01:41.502Z,30.08
2022-08-27T11:06:52.606Z,29.65
2022-08-27T11:12:15.466Z,29.75
2022-08-27T11:17:27.056Z,30.75
2022-08-27T11:22:40.932Z,31.69
2022-08-27T11:27:45.806Z,32.07
2022-08-27T11:33:26.056Z,32.17
2022-08-27T11:38:28.339Z,32.37
2022-08-27T11:43:35.629Z,32.55
2022-08-27T11:48:43.217Z,33.08
2022-08-27T11:54:01.879Z,33.03
2022-08-27T11:59:11.039Z,32.07
2022-08-27T12:04:42.952Z,30.87
2022-08-27T12:09:56.815Z,30.18
2022-08-27T12:15:06.373Z,29.87
2022-08-27T12:20:44.333Z,29.62
2022-08-27T12:26:00.543Z,29.14
2022-08-27T12:31:06.892Z,29.15
2022-08-27T12:36:15.760Z,28.74
2022-08-27T12:41:32.141Z,28.57
2022-08-27T12:46:50.570Z,28.76
2022-08-27T12:51:53.651Z,28.96
2022-08-27T12:57:42.400Z,28.78
2022-08-27T13:03:22.452Z,28.79
2022-08-27T13:08:27.936Z,28.77
2022-08-27T13:13:30.015Z,29.05
2022-08-27T13:18:32.837Z,29.13
2022-08-27T13:23:35.717Z,29.19
2022-08-27T13:28:42.185Z,29.27
2022-08-27T13:33:45.089Z,29.72
2022-08-27T13:38:50.280Z,30.38
2022-08-27T13:43:57.065Z,30.75
2022-08-27T13:49:30.290Z,30.75
2022-08-27T13:54:34.072Z,30.46
2022-08-27T13:59:43.372Z,30.87
2022-08-27T14:04:52.005Z,31.51
2022-08-27T14:09:58.498Z,31.86
2022-08-27T14:15:19.486Z,32.00
2022-08-27T14:20:22.750Z,31.69
2022-08-27T14:25:24.881Z,31.46
2022-08-27T14:30:29.121Z,31.49
2022-08-27T14:35:34.702Z,31.74
2022-08-27T14:40:37.135Z,31.74
2022-08-27T14:45:41.662Z,31.83
2022-08-27T14:50:44.712Z,32.55
2022-08-27T14:55:51.905Z,33.11
2022-08-27T15:00:56.453Z,33.73
2022-08-27T15:06:08.369Z,34.42
2022-08-27T15:11:29.283Z,34.37
2022-08-27T15:16:54.411Z,34.00
2022-08-27T15:22:12.866Z,33.59
2022-08-27T15:27:17.518Z,32.98
2022-08-27T15:32:33.027Z,32.26
2022-08-27T15:37:35.404Z,32.11
2022-08-27T15:42:37.995Z,32.31
2022-08-27T15:47:39.986Z,32.37
2022-08-27T15:52:42.816Z,32.18
2022-08-27T15:57:51.032Z,32.04
2022-08-27T16:03:14.276Z,32.16
2022-08-27T16:08:20.867Z,32.76
2022-08-27T16:13:25.066Z,32.99
2022-08-27T16:18:29.770Z,33.24
2022-08-27T16:23:32.982Z,33.08
2022-08-27T16:28:35.243Z,32.23
2022-08-27T16:33:42.548Z,31.54
2022-08-27T16:38:44.932Z,30.91
2022-08-27T16:43:48.947Z,30.17
2022-08-27T16:49:10.093Z,29.47
2022-08-27T16:54:13.178Z,28.94
2022-08-27T16:59:16.101Z,28.82
2022-08-27T17:04:28.920Z,28.40
2022-08-27T17:09:32.656Z,28.05
2022-08-27T17:14:39.335Z,27.61
2022-08-27T17:20:01.396Z,27.25
2022-08-27T17:25:07.697Z,26.89
2022-08-27T17:30:10.366Z,26.60
2022-08-27T17:35:14.297Z,26.29
2022-08-27T17:40:16.402Z,25.99
2022-08-27T17:45:18.850Z,25.71
2022-08-27T17:50:20.878Z,25.44
2022-08-27T17:55:23.240Z,25.16
2022-08-27T18:00:25.629Z,24.90
2022-08-27T18:05:28.231Z,24.66
2022-08-27T18:10:32.419Z,24.43
2022-08-27T18:15:38.281Z,24.21
2022-08-27T18:20:42.629Z,24.03
2022-08-27T18:25:45.679Z,23.89
2022-08-27T18:30:49.559Z,23.73
2022-08-27T18:35:51.895Z,23.57
2022-08-27T18:40:55.396Z,23.40
2022-08-27T18:45:57.954Z,23.25
2022-08-27T18:51:03.013Z,23.10
2022-08-27T18:56:05.765Z,22.95
2022-08-27T19:01:14.126Z,22.87
2022-08-27T19:06:18.617Z,22.79
2022-08-27T19:11:20.584Z,22.71
2022-08-27T19:16:30.818Z,22.61
2022-08-27T19:21:53.313Z,22.51
2022-08-27T19:26:55.917Z,22.41
2022-08-27T19:31:58.059Z,22.28
2022-08-27T19:37:01.850Z,22.19
2022-08-27T19:42:05.312Z,22.06
2022-08-27T19:47:09.366Z,22.00
2022-08-27T19:52:11.457Z,21.95
2022-08-27T19:57:13.531Z,21.89
2022-08-27T20:02:15.611Z,21.86
2022-08-27T20:07:18.001Z,21.83
2022-08-27T20:12:20.527Z,21.81
2022-08-27T20:17:22.636Z,21.78
2022-08-27T20:22:27.217Z,21.75
2022-08-27T20:27:29.123Z,21.70
2022-08-27T20:32:31.378Z,21.66
2022-08-27T20:37:40.061Z,21.60
2022-08-27T20:42:44.763Z,21.56
2022-08-27T20:47:49.359Z,21.56
2022-08-27T20:52:52.404Z,21.61
2022-08-27T20:58:13.543Z,21.62
2022-08-27T21:03:15.850Z,21.57
2022-08-27T21:08:20.133Z,21.49
2022-08-27T21:13:23.163Z,21.40
2022-08-27T21:18:29.944Z,21.31
2022-08-27T21:23:48.421Z,21.18
2022-08-27T21:28:54.690Z,20.97
2022-08-27T21:33:58.633Z,20.68
2022-08-27T21:39:00.916Z,20.48
2022-08-27T21:44:03.915Z,20.32
2022-08-27T21:49:05.897Z,20.18
2022-08-27T21:54:07.981Z,20.04
2022-08-27T21:59:23.317Z,19.85
2022-08-27T22:04:32.313Z,19.66
2022-08-27T22:09:35.426Z,19.46
2022-08-27T22:14:38.221Z,19.35
2022-08-27T22:19:40.188Z,19.24
2022-08-27T22:24:42.223Z,19.14
2022-08-27T22:30:01.910Z,19.07
2022-08-27T22:35:04.979Z,19.01
2022-08-27T22:40:18.454Z,18.95
2022-08-27T22:45:22.050Z,18.95
2022-08-27T22:50:24.751Z,18.82
2022-08-27T22:55:27.752Z,18.72
2022-08-27T23:00:52.722Z,18.67
2022-08-27T23:06:07.850Z,18.55
2022-08-27T23:11:09.941Z,18.46
2022-08-27T23:16:12.506Z,18.40
2022-08-27T23:21:14.816Z,18.39
2022-08-27T23:26:35.641Z,18.38
2022-08-27T23:31:38.361Z,18.41
2022-08-27T23:36:40.405Z,18.44
2022-08-27T23:41:44.170Z,18.43
2022-08-27T23:46:48.143Z,18.45
2022-08-27T23:51:50.362Z,18.43
2022-08-27T23:56:52.239Z,18.37
